Time;durP1;ratioP1;P1;durP2;ratioP2;P2;SDS_P1;SDS_P2;PMS_P1;PMS_P2;Temp;Humidity;BMP_temperature;BMP_pressure;BME280_temperature;BME280_humidity;BME280_pressure;Samples;Min_cycle;Max_cycle;Signal;HPM_P1;HPM_P2
2023/12/30 00:00:23;;;;;;;18.10;13.20;;;;;;;4.14;80.36;99047.80;107434;1254;72604;-39
2023/12/30 00:02:50;;;;;;;17.60;13.90;;;;;;;4.08;80.51;99040.36;107565;1253;67736;-39
2023/12/30 00:05:18;;;;;;;20.70;12.80;;;;;;;4.03;80.56;99038.55;107535;1253;72457;-39
2023/12/30 00:07:45;;;;;;;19.10;12.80;;;;;;;4.03;80.60;99036.66;107553;1256;60501;-39
2023/12/30 00:10:13;;;;;;;20.50;12.10;;;;;;;4.09;80.55;99036.17;107572;1253;61095;-40
2023/12/30 00:12:41;;;;;;;16.60;12.80;;;;;;;4.09;80.58;99038.42;107558;1253;74307;-40
2023/12/30 00:15:08;;;;;;;18.00;13.00;;;;;;;4.07;80.66;99038.72;107453;1259;66786;-40
2023/12/30 00:17:36;;;;;;;19.70;12.80;;;;;;;4.05;80.64;99043.84;107496;1254;71536;-40
2023/12/30 00:20:05;;;;;;;17.90;11.80;;;;;;;4.07;80.54;99046.16;107531;1253;61101;-40
2023/12/30 00:22:33;;;;;;;14.40;9.40;;;;;;;4.14;80.24;99054.80;107465;1254;60420;-40
2023/12/30 00:25:00;;;;;;;18.60;13.60;;;;;;;4.14;80.07;99056.86;107427;1254;72551;-40
2023/12/30 00:27:28;;;;;;;17.70;13.10;;;;;;;4.09;80.16;99059.50;107566;1253;67633;-40
2023/12/30 00:29:55;;;;;;;18.50;12.20;;;;;;;4.04;80.04;99060.29;107425;1257;72753;-40
2023/12/30 00:32:23;;;;;;;16.20;12.30;;;;;;;4.01;80.23;99059.16;107387;1253;183911;-40
2023/12/30 00:36:28;;;;;;;19.10;12.70;;;;;;;4.09;80.08;99064.84;104125;1292;599627;-39
2023/12/30 00:38:56;;;;;;;18.10;12.90;;;;;;;4.06;80.21;99064.23;106620;1267;59146;-39
2023/12/30 00:41:24;;;;;;;18.80;13.00;;;;;;;4.04;80.15;99063.75;106619;1267;60020;-39
2023/12/30 00:43:52;;;;;;;19.40;12.70;;;;;;;4.02;80.20;99067.94;106650;1266;72266;-39
2023/12/30 00:46:19;;;;;;;17.60;12.20;;;;;;;3.99;80.14;99071.95;106651;1267;67524;-39
2023/12/30 00:48:48;;;;;;;16.60;12.10;;;;;;;4.01;80.00;99078.32;106680;1267;72771;-39
2023/12/30 00:51:25;;;;;;;17.00;11.90;;;;;;;4.02;79.88;99078.28;106688;1263;59961;-39
2023/12/30 00:53:53;;;;;;;18.70;12.80;;;;;;;3.97;80.02;99079.53;106811;1264;60110;-39
2023/12/30 00:56:20;;;;;;;17.30;12.00;;;;;;;3.91;80.21;99077.80;106781;1264;71375;-39
2023/12/30 00:58:48;;;;;;;18.00;12.40;;;;;;;3.86;80.36;99077.43;107584;1256;67902;-39
2023/12/30 01:01:15;;;;;;;16.70;11.50;;;;;;;3.87;80.09;99080.45;107515;1254;72682;-39
2023/12/30 01:03:43;;;;;;;18.30;11.50;;;;;;;3.90;80.22;99079.13;107500;1259;59745;-39
2023/12/30 01:06:10;;;;;;;16.00;12.00;;;;;;;3.89;80.47;99080.54;107479;1253;59528;-39
2023/12/30 01:08:38;;;;;;;15.80;12.20;;;;;;;3.81;80.73;99071.49;107296;1259;71837;-39
2023/12/30 01:11:05;;;;;;;17.40;11.50;;;;;;;3.86;81.12;99074.60;107450;1256;66330;-39
2023/12/30 01:13:33;;;;;;;17.80;11.70;;;;;;;3.90;81.55;99067.20;107538;1254;72361;-39
2023/12/30 01:16:05;;;;;;;16.20;11.40;;;;;;;4.03;81.48;99064.83;107586;1253;61191;-39
2023/12/30 01:18:32;;;;;;;14.40;10.60;;;;;;;4.12;81.52;99062.39;107626;1253;59523;-39
2023/12/30 01:21:00;;;;;;;15.40;10.80;;;;;;;4.17;81.58;99059.36;107666;1253;73053;-39
2023/12/30 01:23:27;;;;;;;14.20;10.40;;;;;;;4.21;81.53;99057.52;107519;1254;67895;-39
2023/12/30 01:25:55;;;;;;;14.00;10.10;;;;;;;4.29;81.38;99063.72;107576;1253;72701;-39
2023/12/30 01:28:23;;;;;;;15.50;10.70;;;;;;;4.39;80.89;99057.30;107588;1256;59617;-39
2023/12/30 01:30:51;;;;;;;14.00;11.10;;;;;;;4.45;80.45;99060.20;107588;1253;59247;-39
2023/12/30 01:33:19;;;;;;;15.80;11.10;;;;;;;4.45;80.35;99056.98;107616;1253;72838;-39
2023/12/30 01:35:47;;;;;;;15.20;11.10;;;;;;;4.46;80.23;99057.94;107704;1253;66403;-39
2023/12/30 01:38:14;;;;;;;14.20;10.60;;;;;;;4.54;79.93;99054.47;107591;1253;71408;-39
2023/12/30 01:40:42;;;;;;;14.00;10.40;;;;;;;4.61;79.67;99049.16;107597;1257;59627;-39
2023/12/30 01:43:26;;;;;;;15.20;11.20;;;;;;;4.63;79.47;99043.79;107611;1252;60034;-39
2023/12/30 01:46:00;;;;;;;16.10;10.70;;;;;;;4.63;79.43;99041.93;107610;1252;73154;-39
2023/12/30 01:48:28;;;;;;;14.40;10.20;;;;;;;4.64;79.28;99040.67;107610;1252;67545;-39
2023/12/30 01:50:57;;;;;;;14.80;10.30;;;;;;;4.73;79.06;99034.01;107572;1254;73171;-39
2023/12/30 01:53:26;;;;;;;14.90;10.60;;;;;;;4.76;78.72;99027.97;107617;1254;60084;-39
2023/12/30 01:55:55;;;;;;;14.70;10.80;;;;;;;4.74;78.85;99027.68;107632;1253;59390;-39
2023/12/30 01:58:23;;;;;;;15.50;10.10;;;;;;;4.73;78.77;99032.98;107460;1254;71846;-39
2023/12/30 02:00:54;;;;;;;13.20;9.50;;;;;;;4.78;78.57;99035.23;107498;1253;67588;-39
2023/12/30 02:03:21;;;;;;;15.70;10.70;;;;;;;4.84;78.24;99034.48;107593;1254;72730;-39
2023/12/30 02:05:49;;;;;;;14.80;10.70;;;;;;;4.82;78.22;99035.20;107612;1254;60064;-39
2023/12/30 02:08:17;;;;;;;16.40;10.30;;;;;;;4.77;78.12;99037.11;107623;1253;60015;-39
2023/12/30 02:10:45;;;;;;;13.80;10.00;;;;;;;4.74;78.34;99037.82;107715;1254;71436;-39
2023/12/30 02:13:12;;;;;;;15.10;10.30;;;;;;;4.76;78.25;99040.41;107483;1259;66395;-39
2023/12/30 02:15:40;;;;;;;13.40;10.10;;;;;;;4.79;78.16;99042.61;107489;1259;71705;-39
2023/12/30 02:18:08;;;;;;;14.00;10.00;;;;;;;4.77;78.30;99043.39;107485;1254;60060;-39
2023/12/30 02:20:35;;;;;;;14.70;10.80;;;;;;;4.73;78.39;99040.17;107534;1254;59190;-39
2023/12/30 02:23:03;;;;;;;12.80;9.80;;;;;;;4.72;78.37;99038.75;107615;1254;71883;-39
2023/12/30 02:25:31;;;;;;;13.40;9.50;;;;;;;4.75;78.29;99042.08;107686;1253;66335;-39
2023/12/30 02:27:59;;;;;;;14.30;10.30;;;;;;;4.81;78.29;99044.15;107603;1253;72519;-39
2023/12/30 02:30:26;;;;;;;14.80;10.60;;;;;;;4.79;78.31;99044.21;107620;1253;59624;-39
2023/12/30 02:32:57;;;;;;;15.30;10.80;;;;;;;4.77;78.25;99039.70;107652;1254;59180;-39
2023/12/30 02:35:27;;;;;;;15.30;10.30;;;;;;;4.75;78.36;99036.92;107534;1254;73021;-40
2023/12/30 02:37:55;;;;;;;12.60;9.60;;;;;;;4.78;78.41;99035.60;107604;1253;67536;-39
2023/12/30 02:40:22;;;;;;;15.00;10.00;;;;;;;4.83;78.24;99037.45;107509;1254;72648;-40
2023/12/30 02:42:50;;;;;;;13.80;10.80;;;;;;;4.80;78.18;99040.02;107567;1253;60429;-39
2023/12/30 02:45:17;;;;;;;14.50;10.20;;;;;;;4.75;78.22;99038.92;107611;1253;59730;-39
2023/12/30 02:47:45;;;;;;;13.30;10.00;;;;;;;4.71;78.35;99043.30;107608;1253;73120;-39
2023/12/30 02:50:13;;;;;;;13.30;9.50;;;;;;;4.73;78.07;99046.23;107576;1253;68489;-39
2023/12/30 02:52:40;;;;;;;13.00;10.00;;;;;;;4.76;78.01;99036.54;107599;1254;71896;-39
2023/12/30 02:55:08;;;;;;;14.90;10.60;;;;;;;4.74;78.10;99039.66;107502;1254;60019;-39
2023/12/30 02:57:35;;;;;;;16.40;11.40;;;;;;;4.69;78.15;99036.34;107501;1254;60106;-39
2023/12/30 03:00:19;;;;;;;16.50;10.40;;;;;;;4.66;78.32;99034.81;107588;1253;73326;-39
2023/12/30 03:02:47;;;;;;;13.70;10.00;;;;;;;4.64;78.16;99036.39;107578;1255;67581;-39
2023/12/30 03:05:14;;;;;;;12.90;9.80;;;;;;;4.67;78.04;99032.52;107586;1252;70693;-39
2023/12/30 03:07:42;;;;;;;13.80;9.80;;;;;;;4.70;78.15;99033.61;107476;1259;60040;-39
2023/12/30 03:10:11;;;;;;;13.00;9.80;;;;;;;4.69;78.18;99034.87;107609;1252;60063;-39
2023/12/30 03:12:40;;;;;;;9.90;7.60;;;;;;;4.66;78.19;99034.52;107523;1254;73021;-39
2023/12/30 03:15:09;;;;;;;15.50;10.40;;;;;;;4.61;78.25;99031.13;107605;1253;66300;-39
2023/12/30 03:17:37;;;;;;;13.50;9.40;;;;;;;4.60;78.34;99032.16;107630;1257;71379;-39
2023/12/30 03:20:09;;;;;;;11.50;8.50;;;;;;;4.64;78.27;99032.16;107510;1253;60726;-39
2023/12/30 03:22:37;;;;;;;15.30;9.60;;;;;;;4.68;78.20;99032.16;107519;1254;59952;-39
2023/12/30 03:25:06;;;;;;;12.90;9.70;;;;;;;4.67;78.19;99031.36;107555;1252;73040;-39
2023/12/30 03:27:36;;;;;;;12.80;10.20;;;;;;;4.66;78.23;99032.83;107516;1254;66785;-39
2023/12/30 03:30:04;;;;;;;13.20;10.30;;;;;;;4.63;78.32;99029.83;107582;1254;72637;-39
2023/12/30 03:32:32;;;;;;;12.60;9.50;;;;;;;4.61;78.20;99028.38;107654;1254;59662;-38
2023/12/30 03:35:00;;;;;;;12.50;9.40;;;;;;;4.66;78.11;99031.04;107605;1253;59296;-39
2023/12/30 03:37:27;;;;;;;13.50;9.70;;;;;;;4.73;77.95;99041.84;107611;1254;73025;-39
2023/12/30 03:39:55;;;;;;;12.10;9.30;;;;;;;4.73;77.88;99041.55;107585;1257;67559;-39
2023/12/30 03:42:23;;;;;;;12.40;9.70;;;;;;;4.69;77.91;99037.64;107581;1257;72695;-39
2023/12/30 03:44:50;;;;;;;16.10;10.30;;;;;;;4.66;77.86;99043.22;107584;1253;59745;-39
2023/12/30 03:47:18;;;;;;;13.00;9.20;;;;;;;4.63;77.81;99039.27;107582;1253;59931;-39
2023/12/30 03:49:46;;;;;;;11.20;8.60;;;;;;;4.65;77.76;99038.71;107584;1254;71803;-39
2023/12/30 03:52:14;;;;;;;12.70;9.30;;;;;;;4.68;77.56;99041.23;107454;1254;67536;-39
2023/12/30 03:54:43;;;;;;;14.60;9.40;;;;;;;4.67;77.58;99046.00;107556;1257;71426;-39
2023/12/30 03:57:13;;;;;;;12.10;9.60;;;;;;;4.64;77.58;99049.50;107431;1256;60033;-39
2023/12/30 03:59:40;;;;;;;14.20;9.70;;;;;;;4.61;77.48;99045.01;107494;1257;60152;-39
2023/12/30 04:02:08;;;;;;;14.40;10.00;;;;;;;4.51;77.52;99034.36;107445;1253;72438;-39
2023/12/30 04:04:36;;;;;;;13.20;9.40;;;;;;;4.56;77.22;99046.64;107437;1254;67865;-39
2023/12/30 04:07:04;;;;;;;13.00;9.90;;;;;;;4.55;77.18;99043.33;107421;1254;72722;-39
2023/12/30 04:09:31;;;;;;;13.30;10.10;;;;;;;4.49;77.49;99041.10;107483;1254;59640;-39
2023/12/30 04:11:58;;;;;;;14.50;10.40;;;;;;;4.42;77.62;99041.83;107461;1253;59507;-39
2023/12/30 04:14:26;;;;;;;16.30;11.00;;;;;;;4.33;77.82;99043.90;107279;1254;73072;-39
2023/12/30 04:16:54;;;;;;;12.60;10.00;;;;;;;4.26;78.01;99038.39;107482;1253;66164;-39
2023/12/30 04:19:24;;;;;;;11.60;9.50;;;;;;;4.26;78.24;99034.70;107555;1253;71438;-39
2023/12/30 04:21:51;;;;;;;14.80;10.10;;;;;;;4.25;78.21;99031.23;107477;1254;59821;-39
2023/12/30 04:24:19;;;;;;;13.90;10.00;;;;;;;4.20;78.67;99033.48;107490;1253;60032;-39
2023/12/30 04:26:46;;;;;;;14.30;11.30;;;;;;;4.13;78.83;99035.44;107540;1253;72968;-39
2023/12/30 04:29:14;;;;;;;15.60;9.60;;;;;;;4.08;78.98;99039.45;107481;1254;67650;-39
2023/12/30 04:31:41;;;;;;;15.80;10.30;;;;;;;4.09;79.03;99043.25;107484;1253;72455;-39
2023/12/30 04:34:09;;;;;;;14.10;10.50;;;;;;;4.11;79.07;99041.34;107442;1253;60080;-39
2023/12/30 04:36:37;;;;;;;13.70;9.90;;;;;;;4.09;79.20;99047.76;107531;1253;60074;-39
2023/12/30 04:39:05;;;;;;;17.00;11.40;;;;;;;4.04;79.30;99048.64;107473;1253;73056;-39
2023/12/30 04:41:33;;;;;;;13.80;11.00;;;;;;;3.99;79.45;99044.15;106745;1253;1003623;-39
2023/12/30 04:44:01;;;;;;;14.90;10.70;;;;;;;3.94;79.56;99041.68;107517;1253;71446;-39
2023/12/30 04:46:28;;;;;;;13.40;10.30;;;;;;;3.96;79.64;99041.20;107476;1253;60872;-39
2023/12/30 04:48:56;;;;;;;17.00;11.40;;;;;;;4.00;79.52;99040.84;107467;1253;60298;-39
2023/12/30 04:51:24;;;;;;;14.20;10.80;;;;;;;3.99;79.42;99040.30;107474;1253;73811;-39
2023/12/30 04:53:51;;;;;;;15.00;11.40;;;;;;;3.94;79.67;99040.67;107504;1256;68014;-39
2023/12/30 04:56:19;;;;;;;14.40;11.00;;;;;;;3.89;79.83;99034.48;107448;1254;70725;-39
2023/12/30 04:58:46;;;;;;;17.20;11.10;;;;;;;3.84;79.82;99030.95;107430;1253;60429;-39
2023/12/30 05:01:14;;;;;;;16.00;11.60;;;;;;;3.89;79.82;99029.27;107468;1253;60589;-39
2023/12/30 05:03:42;;;;;;;15.70;11.00;;;;;;;3.92;79.74;99026.48;107487;1253;74096;-39
2023/12/30 05:06:21;;;;;;;15.30;11.10;;;;;;;3.89;79.79;99024.55;107504;1257;66300;-39
2023/12/30 05:08:52;;;;;;;15.80;12.10;;;;;;;3.86;79.88;99019.61;107527;1253;72473;-39
2023/12/30 05:11:23;;;;;;;17.10;11.80;;;;;;;3.85;79.80;99019.02;107479;1253;60483;-39
2023/12/30 05:13:51;;;;;;;15.10;10.70;;;;;;;3.84;79.68;99022.89;107496;1253;60439;-39
2023/12/30 05:16:18;;;;;;;17.40;11.40;;;;;;;3.89;79.34;99028.77;107484;1253;73828;-39
2023/12/30 05:18:46;;;;;;;16.10;11.00;;;;;;;3.91;79.30;99033.52;107528;1253;66655;-39
2023/12/30 05:21:15;;;;;;;14.10;11.00;;;;;;;3.87;79.12;99032.44;107503;1253;72740;-39
2023/12/30 05:23:42;;;;;;;19.20;12.40;;;;;;;3.82;79.46;99027.96;107568;1253;60313;-39
2023/12/30 05:26:12;;;;;;;16.60;12.30;;;;;;;3.77;79.76;99025.61;107501;1253;60396;-39
2023/12/30 05:28:40;;;;;;;14.60;11.30;;;;;;;3.75;79.84;99026.24;107532;1253;73825;-39
2023/12/30 05:31:07;;;;;;;15.20;11.00;;;;;;;3.77;79.96;99029.74;107479;1253;68102;-39
2023/12/30 05:33:35;;;;;;;14.20;11.20;;;;;;;3.79;80.05;99031.09;107501;1253;71497;-39
2023/12/30 05:36:03;;;;;;;15.70;11.90;;;;;;;3.75;80.31;99031.96;107473;1257;60518;-39
2023/12/30 05:38:30;;;;;;;16.30;11.90;;;;;;;3.72;80.68;99032.95;107508;1253;60510;-39
2023/12/30 05:40:58;;;;;;;15.50;10.90;;;;;;;3.70;80.67;99037.78;107504;1253;73924;-39
2023/12/30 05:43:26;;;;;;;14.50;11.00;;;;;;;3.75;80.66;99039.30;107518;1253;68086;-39
2023/12/30 05:45:53;;;;;;;17.50;11.50;;;;;;;3.81;80.66;99038.85;107503;1256;72672;-39
2023/12/30 05:48:21;;;;;;;16.80;11.70;;;;;;;3.81;80.68;99034.21;107490;1253;60521;-39
2023/12/30 05:50:49;;;;;;;16.30;11.10;;;;;;;3.82;80.58;99035.98;106055;1253;1003745;-39
2023/12/30 05:53:16;;;;;;;15.60;12.20;;;;;;;3.81;80.61;99032.98;107529;1257;72965;-38
2023/12/30 05:55:44;;;;;;;18.60;10.70;;;;;;;3.75;80.64;99027.14;107523;1253;66786;-38
2023/12/30 05:58:11;;;;;;;15.80;11.20;;;;;;;3.86;80.31;99040.36;107492;1253;72447;-38
2023/12/30 06:00:39;;;;;;;15.60;11.10;;;;;;;3.93;80.18;99037.87;107532;1253;60362;-38
2023/12/30 06:03:07;;;;;;;16.70;11.70;;;;;;;3.94;80.24;99039.13;107470;1253;60310;-38
2023/12/30 06:05:35;;;;;;;17.10;11.50;;;;;;;3.92;80.36;99042.06;107533;1253;73887;-38
2023/12/30 06:08:04;;;;;;;14.40;10.80;;;;;;;3.91;80.38;99042.65;107505;1253;67576;-39
2023/12/30 06:10:31;;;;;;;17.40;11.30;;;;;;;3.91;80.32;99048.45;106781;1257;1003855;-38
2023/12/30 06:12:59;;;;;;;17.50;12.10;;;;;;;3.94;80.01;99048.18;107518;1253;60902;-39
2023/12/30 06:15:27;;;;;;;14.10;10.90;;;;;;;4.02;79.99;99049.86;106766;1253;1002670;-39
2023/12/30 06:17:54;;;;;;;17.20;12.10;;;;;;;4.02;79.92;99050.61;107502;1253;72553;-39
2023/12/30 06:20:23;;;;;;;17.60;12.10;;;;;;;3.99;80.03;99051.29;107534;1253;67506;-39
2023/12/30 06:22:50;;;;;;;15.70;10.90;;;;;;;3.98;80.23;99048.09;107516;1253;70597;-39
2023/12/30 06:25:18;;;;;;;17.80;11.30;;;;;;;3.97;80.01;99049.05;107485;1253;60973;-39
2023/12/30 06:27:45;;;;;;;17.30;11.60;;;;;;;4.03;79.89;99057.52;107563;1253;59996;-39
2023/12/30 06:30:13;;;;;;;17.70;11.50;;;;;;;4.05;79.80;99055.86;107519;1253;73830;-39
2023/12/30 06:32:41;;;;;;;17.30;11.10;;;;;;;4.02;79.87;99055.46;107524;1253;66587;-39
2023/12/30 06:35:09;;;;;;;16.30;12.20;;;;;;;4.00;79.95;99054.76;107512;1257;71470;-39
2023/12/30 06:37:37;;;;;;;18.80;11.60;;;;;;;3.98;80.14;99052.67;107551;1253;60358;-39
2023/12/30 06:40:05;;;;;;;13.70;10.40;;;;;;;4.02;80.01;99051.34;107509;1253;60368;-39
2023/12/30 06:42:33;;;;;;;17.60;11.20;;;;;;;4.10;79.78;99047.41;107586;1253;72650;-39
2023/12/30 06:45:00;;;;;;;15.50;11.40;;;;;;;4.11;79.71;99051.00;107525;1257;65319;-39
2023/12/30 06:47:28;;;;;;;15.70;12.00;;;;;;;4.09;79.94;99051.61;107525;1253;72650;-39
2023/12/30 06:49:56;;;;;;;17.30;12.70;;;;;;;4.08;80.08;99049.18;107554;1253;60355;-39
2023/12/30 06:52:24;;;;;;;19.50;11.90;;;;;;;4.10;80.24;99048.27;107607;1253;60406;-39
2023/12/30 06:54:53;;;;;;;15.50;11.00;;;;;;;4.21;79.85;99047.70;107546;1253;73838;-39
2023/12/30 06:57:37;;;;;;;21.50;11.50;;;;;;;4.32;79.52;99055.92;107552;1257;68360;-39
2023/12/30 07:00:05;;;;;;;17.40;11.40;;;;;;;4.36;79.44;99057.70;107519;1253;71690;-39
2023/12/30 07:02:34;;;;;;;17.20;11.90;;;;;;;4.39;79.55;99062.17;107517;1253;60394;-39
2023/12/30 07:05:01;;;;;;;17.70;12.60;;;;;;;4.40;79.40;99064.10;107630;1253;60491;-39
2023/12/30 07:07:29;;;;;;;15.70;11.50;;;;;;;4.41;79.35;99059.66;107543;1252;73478;-39
2023/12/30 07:09:57;;;;;;;15.20;11.20;;;;;;;4.47;79.26;99063.29;107530;1253;67561;-39
2023/12/30 07:12:24;;;;;;;14.10;11.20;;;;;;;4.56;78.99;99059.41;107511;1253;72494;-39
2023/12/30 07:14:51;;;;;;;17.10;11.80;;;;;;;4.61;79.04;99055.98;107508;1253;60423;-39
2023/12/30 07:17:19;;;;;;;16.10;11.70;;;;;;;4.66;79.19;99053.61;107516;1254;60512;-39
2023/12/30 07:19:46;;;;;;;20.50;14.70;;;;;;;4.68;79.14;99054.11;107515;1257;73862;-39
2023/12/30 07:22:15;;;;;;;20.20;13.80;;;;;;;4.71;79.16;99056.67;107557;1253;67630;-39
2023/12/30 07:24:42;;;;;;;19.80;13.40;;;;;;;4.79;79.17;99052.41;107515;1253;72471;-39
2023/12/30 07:27:11;;;;;;;19.20;12.00;;;;;;;4.90;79.03;99053.49;107533;1253;60352;-39
2023/12/30 07:29:39;;;;;;;18.60;12.30;;;;;;;4.93;79.02;99053.94;107524;1253;60387;-40
2023/12/30 07:32:06;;;;;;;17.00;12.80;;;;;;;4.95;79.25;99051.39;107506;1253;73948;-40
2023/12/30 07:34:34;;;;;;;17.00;12.50;;;;;;;4.99;79.13;99049.75;107542;1253;66831;-44
2023/12/30 07:37:02;;;;;;;14.60;10.80;;;;;;;5.05;79.01;99050.76;106791;1253;1002998;-39
2023/12/30 07:39:30;;;;;;;17.30;10.90;;;;;;;5.16;78.57;99050.69;107518;1253;60889;-39
2023/12/30 07:41:57;;;;;;;15.60;10.30;;;;;;;5.24;78.48;99049.80;107554;1253;60387;-39
2023/12/30 07:44:27;;;;;;;17.10;11.40;;;;;;;5.26;78.48;99052.27;107529;1257;74342;-40
2023/12/30 07:46:54;;;;;;;16.10;11.60;;;;;;;5.27;78.31;99052.61;107542;1253;68124;-40
2023/12/30 07:49:22;;;;;;;14.70;10.50;;;;;;;5.34;78.13;99048.39;107506;1253;72952;-39
2023/12/30 07:51:50;;;;;;;15.80;11.00;;;;;;;5.43;77.92;99051.21;107519;1253;60349;-39
2023/12/30 07:54:18;;;;;;;17.10;11.30;;;;;;;5.45;77.81;99054.83;107487;1253;60319;-40
2023/12/30 07:56:46;;;;;;;16.50;11.90;;;;;;;5.47;78.00;99057.80;107498;1253;73773;-39
2023/12/30 07:59:14;;;;;;;16.50;11.20;;;;;;;5.48;78.02;99053.17;107533;1253;67528;-39
2023/12/30 08:01:43;;;;;;;16.50;11.00;;;;;;;5.56;77.92;99048.21;107507;1253;72654;-39
2023/12/30 08:04:11;;;;;;;16.60;11.10;;;;;;;5.67;77.34;99050.12;107574;1253;60430;-39
2023/12/30 08:06:39;;;;;;;15.10;11.30;;;;;;;5.70;77.10;99049.05;107476;1253;60174;-40
2023/12/30 08:09:08;;;;;;;15.30;11.30;;;;;;;5.74;77.12;99048.63;107574;1253;73810;-39
2023/12/30 08:11:35;;;;;;;16.70;11.50;;;;;;;5.77;77.10;99046.20;107548;1253;68076;-39
2023/12/30 08:14:21;;;;;;;14.70;10.60;;;;;;;5.84;76.96;99044.98;107460;1253;72432;-39
2023/12/30 08:16:48;;;;;;;13.60;10.10;;;;;;;5.96;76.85;99041.18;107474;1254;61731;-39
2023/12/30 08:19:16;;;;;;;15.60;11.30;;;;;;;6.05;76.71;99036.30;107522;1253;60453;-40
2023/12/30 08:21:44;;;;;;;15.00;11.10;;;;;;;6.10;76.50;99038.78;107536;1253;73800;-39
2023/12/30 08:24:14;;;;;;;13.60;10.60;;;;;;;6.16;76.52;99035.41;107549;1256;67560;-40
2023/12/30 08:26:42;;;;;;;16.20;10.30;;;;;;;6.22;76.24;99037.23;107502;1253;72542;-40
2023/12/30 08:29:09;;;;;;;17.40;10.60;;;;;;;6.35;76.00;99037.30;107486;1253;60420;-39
2023/12/30 08:31:45;;;;;;;17.10;9.80;;;;;;;6.49;75.31;99039.66;107492;1253;60293;-39
2023/12/30 08:34:13;;;;;;;13.50;10.80;;;;;;;6.58;75.04;99036.52;107551;1253;73892;-40
2023/12/30 08:36:42;;;;;;;12.60;9.90;;;;;;;6.62;74.74;99027.17;107530;1253;66284;-39
2023/12/30 08:39:10;;;;;;;14.50;10.10;;;;;;;6.67;74.35;99028.24;107537;1253;70993;-40
2023/12/30 08:41:40;;;;;;;14.40;10.40;;;;;;;6.66;73.84;99020.04;107462;1253;60524;-39
2023/12/30 08:44:08;;;;;;;14.10;10.60;;;;;;;6.78;73.81;99022.02;107603;1257;60550;-39
2023/12/30 08:46:36;;;;;;;14.90;10.50;;;;;;;6.82;73.82;99025.36;107397;1253;73748;-39
2023/12/30 08:49:04;;;;;;;13.80;10.70;;;;;;;6.83;73.50;99019.54;107539;1253;67338;-40
2023/12/30 08:51:36;;;;;;;13.90;10.50;;;;;;;6.85;73.51;99015.58;107559;1253;72984;-39
2023/12/30 08:54:04;;;;;;;14.20;10.50;;;;;;;6.89;73.58;99010.16;107543;1253;60278;-40
2023/12/30 08:56:33;;;;;;;12.80;9.50;;;;;;;6.99;73.26;99010.20;107514;1253;58711;-40
2023/12/30 08:59:00;;;;;;;13.90;10.20;;;;;;;7.06;72.95;99004.91;107593;1253;72622;-40
2023/12/30 09:01:28;;;;;;;14.70;10.90;;;;;;;7.10;72.95;99006.48;107514;1257;66711;-40
2023/12/30 09:03:56;;;;;;;14.10;10.90;;;;;;;7.16;72.67;99003.20;107540;1253;71381;-40
2023/12/30 09:06:24;;;;;;;14.70;10.40;;;;;;;7.23;72.62;98998.07;107394;1253;60547;-40
2023/12/30 09:08:52;;;;;;;12.80;8.90;;;;;;;7.36;72.19;98990.16;107503;1253;60292;-39
2023/12/30 09:11:20;;;;;;;11.80;8.80;;;;;;;7.48;71.78;98985.44;107458;1254;73946;-40
2023/12/30 09:13:54;;;;;;;14.00;9.70;;;;;;;7.53;71.54;98984.95;107591;1253;67518;-40
2023/12/30 09:16:21;;;;;;;11.60;9.50;;;;;;;7.58;70.96;98985.31;107535;1253;71430;-40
2023/12/30 09:18:49;;;;;;;12.90;9.60;;;;;;;7.63;70.83;98983.52;107498;1258;60430;-40
2023/12/30 09:21:17;;;;;;;13.60;9.90;;;;;;;7.70;70.81;98985.60;107508;1258;60293;-40
2023/12/30 09:23:45;;;;;;;12.70;10.20;;;;;;;7.79;70.34;98982.89;107557;1253;73830;-40
2023/12/30 09:26:15;;;;;;;15.50;10.40;;;;;;;7.81;70.00;98974.61;107650;1253;68000;-40
2023/12/30 09:28:43;;;;;;;13.50;9.90;;;;;;;7.78;69.53;98973.45;107591;1253;71402;-40
2023/12/30 09:31:11;;;;;;;13.60;9.60;;;;;;;7.76;69.86;98970.10;107552;1254;60422;-40
2023/12/30 09:33:39;;;;;;;14.80;9.80;;;;;;;7.79;69.90;98970.17;107507;1253;60298;-40
2023/12/30 09:36:07;;;;;;;11.00;9.00;;;;;;;7.96;69.98;98975.88;107564;1253;73888;-39
2023/12/30 09:38:35;;;;;;;12.90;9.60;;;;;;;8.17;69.21;98979.98;107632;1253;67910;-40
2023/12/30 09:41:03;;;;;;;12.00;9.50;;;;;;;8.29;68.52;98974.79;107578;1253;71776;-40
2023/12/30 09:43:30;;;;;;;15.20;10.20;;;;;;;8.38;67.89;98971.82;107550;1253;60428;-39
2023/12/30 09:45:58;;;;;;;15.90;11.20;;;;;;;8.45;67.38;98971.12;107362;1253;59271;-40
2023/12/30 09:48:28;;;;;;;12.90;9.90;;;;;;;8.51;67.55;98966.61;107549;1253;73863;-40
2023/12/30 09:50:56;;;;;;;12.90;9.90;;;;;;;8.56;66.80;98963.25;107497;1253;67582;-40
2023/12/30 09:53:24;;;;;;;13.60;10.20;;;;;;;8.60;66.84;98960.16;107569;1253;72641;-40
2023/12/30 09:55:52;;;;;;;14.00;9.30;;;;;;;8.56;66.61;98960.00;107581;1253;60474;-40
2023/12/30 09:58:21;;;;;;;12.40;9.60;;;;;;;8.50;67.02;98961.36;107567;1253;60355;-40
2023/12/30 10:00:49;;;;;;;15.10;10.20;;;;;;;8.44;67.29;98976.13;107554;1258;74317;-40
2023/12/30 10:03:18;;;;;;;17.10;10.70;;;;;;;8.36;67.31;98979.33;107565;1253;66614;-40
2023/12/30 10:05:46;;;;;;;14.70;10.10;;;;;;;8.33;67.92;98979.50;107367;1253;72415;-40
2023/12/30 10:08:15;;;;;;;13.60;9.70;;;;;;;8.37;68.05;98976.19;107485;1256;60541;-40
2023/12/30 10:10:44;;;;;;;14.30;10.50;;;;;;;8.37;68.17;98974.89;107337;1253;60309;-39
2023/12/30 10:13:13;;;;;;;15.00;10.40;;;;;;;8.31;68.08;98974.14;107599;1258;73825;-40
2023/12/30 10:15:42;;;;;;;13.50;10.50;;;;;;;8.26;68.40;98975.02;107637;1253;67888;-40
2023/12/30 10:18:10;;;;;;;14.40;11.40;;;;;;;8.22;68.52;98967.37;107561;1253;72703;-39
2023/12/30 10:20:43;;;;;;;16.70;10.40;;;;;;;8.18;68.31;98963.88;107542;1253;60428;-40
2023/12/30 10:23:11;;;;;;;13.40;9.70;;;;;;;8.21;68.46;98953.22;107499;1253;60310;-40
2023/12/30 10:25:39;;;;;;;14.90;10.70;;;;;;;8.21;68.41;98947.52;107555;1253;72571;-40
2023/12/30 10:28:07;;;;;;;14.00;10.50;;;;;;;8.18;68.41;98948.60;107630;1253;66820;-39
2023/12/30 10:30:35;;;;;;;14.80;11.40;;;;;;;8.13;68.63;98952.05;107557;1253;73261;-40
2023/12/30 10:33:21;;;;;;;16.00;10.90;;;;;;;8.09;69.01;98948.19;107546;1253;60585;-40
2023/12/30 10:35:48;;;;;;;12.70;10.00;;;;;;;8.07;69.14;98948.14;107347;1254;59277;-40
2023/12/30 10:38:16;;;;;;;12.60;9.60;;;;;;;8.12;69.21;98946.23;107474;1254;73844;-40
2023/12/30 10:40:44;;;;;;;15.30;10.20;;;;;;;8.17;68.96;98941.41;107348;1256;67722;-40
2023/12/30 10:43:12;;;;;;;13.70;10.10;;;;;;;8.16;68.98;98932.61;107322;1260;72693;-40
2023/12/30 10:45:40;;;;;;;14.10;10.10;;;;;;;8.18;69.17;98932.02;107500;1255;60318;-40
2023/12/30 10:48:08;;;;;;;14.20;10.60;;;;;;;8.20;69.44;98929.92;107397;1256;60366;-40
2023/12/30 10:50:37;;;;;;;15.20;10.70;;;;;;;8.25;69.50;98927.08;107375;1254;72786;-40
2023/12/30 10:53:11;;;;;;;12.80;9.60;;;;;;;8.33;69.41;98923.25;107369;1256;67557;-40
2023/12/30 10:55:44;;;;;;;12.30;10.10;;;;;;;8.46;68.75;98917.04;107530;1256;71395;-40
2023/12/30 10:58:15;;;;;;;16.10;11.30;;;;;;;8.50;68.36;98909.27;107539;1256;60397;-40
2023/12/30 11:00:43;;;;;;;13.40;10.50;;;;;;;8.50;68.24;98898.28;107491;1254;60539;-40
2023/12/30 11:03:11;;;;;;;15.00;10.40;;;;;;;8.47;68.27;98905.49;107345;1255;73603;-40
2023/12/30 11:05:43;;;;;;;14.90;10.70;;;;;;;8.45;68.18;98903.98;107400;1255;68238;-40
2023/12/30 11:08:12;;;;;;;14.30;9.50;;;;;;;8.41;68.24;98904.13;107365;1255;72740;-40
2023/12/30 11:10:39;;;;;;;12.70;9.70;;;;;;;8.43;68.00;98901.77;107342;1255;61005;-40
2023/12/30 11:13:09;;;;;;;13.70;10.00;;;;;;;8.44;67.86;98900.16;107369;1258;59237;-40
2023/12/30 11:15:39;;;;;;;13.30;10.10;;;;;;;8.41;68.13;98897.73;107423;1255;73844;-40
2023/12/30 11:18:10;;;;;;;12.70;9.90;;;;;;;8.39;68.35;98893.20;107369;1256;67072;-39
2023/12/30 11:20:45;;;;;;;14.10;10.50;;;;;;;8.37;68.37;98889.16;107351;1255;72418;-40
2023/12/30 11:23:14;;;;;;;17.10;10.70;;;;;;;8.36;68.33;98886.66;107481;1256;60330;-40
2023/12/30 11:25:48;;;;;;;18.50;10.20;;;;;;;8.34;68.29;98877.04;107557;1256;60358;-40